Terminal Aerodrome Forecast
Issued by NWS

Home | Current Version | Previous Version | Text Only | Print | Product List | Glossary Off
Versions: 1 2 3 4 5 6 7 8 9 10 11 12 13

000
FTUS44 KTSA 270900 AAA
TAFFYV
TAF AMD
KFYV 270937Z 2710/2806 36006KT P6SM SCT020
     FM271200 VRB03KT P6SM SCT100
     FM272200 16005KT P6SM SCT150=

USA.gov is the U.S. government's official web portal to all federal, state and local government web resources and services.